This is the latest recevied weather packets stored in our database for station/object KE8BSM. If no packets are shown the sender has not sent any weather packets the latest 10 day(s).
| Time | Temp. | Humidity | Pressure | Rain* | Wind** | Luminosity | Snow |
|---|---|---|---|---|---|---|---|
| 1777458329 | 10° C | 89% | 1012.4 hPa | 0 mm | - | 0 W/m² | - |
| 1777455930 | 10° C | 92% | 1012.5 hPa | 0 mm | - | 0 W/m² | - |
| 1777452916 | 10.56° C | 93% | 1012.2 hPa | 0 mm | - | 0 W/m² | - |
| 1777445118 | 10° C | 94% | 1012.8 hPa | 0 mm | - | 0 W/m² | - |
| 1777443336 | 10° C | 93% | 1012.6 hPa | 0 mm | - | 0 W/m² | - |
| 1777442116 | 10° C | 95% | 1013.5 hPa | 0 mm | - | 0 W/m² | - |
| 1777441536 | 10° C | 92% | 1013.4 hPa | 0 mm | - | 0 W/m² | - |
| 1777437917 | 10° C | 91% | 1013.5 hPa | 0 mm | - | 0 W/m² | - |
| 1777436118 | 10.56° C | 89% | 1013.9 hPa | 0 mm | - | 0 W/m² | - |
| 1777434917 | 10.56° C | 88% | 1014 hPa | 0 mm | - | 0 W/m² | - |
| 1777432518 | 10.56° C | 88% | 1014.1 hPa | 0 mm | - | 0 W/m² | - |
| 1777428916 | 10.56° C | 87% | 1013.2 hPa | 0 mm | - | 0 W/m² | - |
| 1777425317 | 11.67° C | 81% | 1012.8 hPa | 0 mm | - | 0 W/m² | - |
| 1777423517 | 12.22° C | 76% | 1012.8 hPa | 0 mm | - | 2 W/m² | - |
| 1777422918 | 12.78° C | 74% | 1012.6 hPa | 0 mm | - | 4 W/m² | - |
| 1777417517 | 13.89° C | 67% | 1012.6 hPa | 0 mm | - | 106 W/m² | - |
| 1777407316 | 13.89° C | 69% | 1013 hPa | 0 mm | - | 751 W/m² | - |
| 1777402517 | 12.78° C | 72% | 1012.7 hPa | 0 mm | - | 733 W/m² | - |
| 1777401917 | 12.78° C | 74% | 1012.4 hPa | 0 mm | - | 904 W/m² | - |
| 1777380916 | 10.56° C | 91% | 1008.4 hPa | 0 mm | - | 38 W/m² | - |
| 1777377937 | 11.11° C | 91% | 1007.4 hPa | 0 mm | - | 14 W/m² | - |
| 1777377357 | 11.11° C | 91% | 1007.2 hPa | 0 mm | - | 10 W/m² | - |
| 1777365920 | 15.56° C | 95% | 1003.2 hPa | 0 mm | - | 0 W/m² | - |
| 1777358736 | 16.11° C | 96% | 1003.1 hPa | 0 mm | - | 0 W/m² | - |
| 1777353326 | 16.11° C | 100% | 1003 hPa | 0 mm | - | 0 W/m² | - |
* Rain latest hour (hover to see other rain measurements)
** Current wind speed in m/s (hover to see current wind gust speed)